sensor_id;sensor_type;location;lat;lon;timestamp;pressure;altitude;pressure_sealevel;temperature;humidity
71195;BME280;58908;51.426;7.714;2023-02-23T00:00:55;99430.59;;;8.23;100.00
71195;BME280;58908;51.426;7.714;2023-02-23T00:03:22;99434.03;;;8.24;100.00
71195;BME280;58908;51.426;7.714;2023-02-23T00:05:49;99430.72;;;8.20;100.00
71195;BME280;58908;51.426;7.714;2023-02-23T00:08:15;99435.97;;;8.20;100.00
71195;BME280;58908;51.426;7.714;2023-02-23T00:10:42;99427.34;;;8.18;100.00
71195;BME280;58908;51.426;7.714;2023-02-23T00:13:08;99432.66;;;8.17;100.00
71195;BME280;58908;51.426;7.714;2023-02-23T00:15:35;99429.97;;;8.18;100.00
71195;BME280;58908;51.426;7.714;2023-02-23T00:18:01;99428.22;;;8.17;100.00
71195;BME280;58908;51.426;7.714;2023-02-23T00:20:28;99435.22;;;8.18;100.00
71195;BME280;58908;51.426;7.714;2023-02-23T00:22:56;99424.84;;;8.15;100.00
71195;BME280;58908;51.426;7.714;2023-02-23T00:25:22;99423.91;;;8.16;100.00
71195;BME280;58908;51.426;7.714;2023-02-23T00:27:49;99423.97;;;8.15;100.00
71195;BME280;58908;51.426;7.714;2023-02-23T00:30:16;99422.97;;;8.17;100.00
71195;BME280;58908;51.426;7.714;2023-02-23T00:32:43;99420.53;;;8.14;100.00
71195;BME280;58908;51.426;7.714;2023-02-23T00:35:10;99417.88;;;8.14;100.00
71195;BME280;58908;51.426;7.714;2023-02-23T00:37:41;99417.97;;;8.13;100.00
71195;BME280;58908;51.426;7.714;2023-02-23T00:40:10;99424.16;;;8.12;100.00
71195;BME280;58908;51.426;7.714;2023-02-23T00:42:38;99417.97;;;8.13;100.00
71195;BME280;58908;51.426;7.714;2023-02-23T00:45:05;99419.75;;;8.12;100.00
71195;BME280;58908;51.426;7.714;2023-02-23T00:47:32;99417.13;;;8.12;100.00
71195;BME280;58908;51.426;7.714;2023-02-23T00:49:59;99425.16;;;8.09;100.00
71195;BME280;58908;51.426;7.714;2023-02-23T00:52:26;99421.00;;;8.05;100.00
71195;BME280;58908;51.426;7.714;2023-02-23T00:54:53;99422.75;;;8.05;100.00
71195;BME280;58908;51.426;7.714;2023-02-23T00:57:21;99424.56;;;8.04;100.00
71195;BME280;58908;51.426;7.714;2023-02-23T00:59:47;99421.06;;;8.04;100.00
71195;BME280;58908;51.426;7.714;2023-02-23T01:02:13;99424.63;;;8.03;100.00
71195;BME280;58908;51.426;7.714;2023-02-23T01:04:40;99422.09;;;8.01;100.00
71195;BME280;58908;51.426;7.714;2023-02-23T01:07:06;99419.38;;;8.03;100.00
71195;BME280;58908;51.426;7.714;2023-02-23T01:09:32;99421.00;;;8.05;100.00
71195;BME280;58908;51.426;7.714;2023-02-23T01:11:58;99412.13;;;8.08;100.00
71195;BME280;58908;51.426;7.714;2023-02-23T01:14:27;99412.94;;;8.08;100.00
71195;BME280;58908;51.426;7.714;2023-02-23T01:16:53;99415.56;;;8.08;100.00
71195;BME280;58908;51.426;7.714;2023-02-23T01:19:20;99410.31;;;8.08;100.00
71195;BME280;58908;51.426;7.714;2023-02-23T01:21:46;99412.13;;;8.08;100.00
71195;BME280;58908;51.426;7.714;2023-02-23T01:24:12;99408.63;;;8.07;100.00
71195;BME280;58908;51.426;7.714;2023-02-23T01:26:40;99408.63;;;8.07;100.00
71195;BME280;58908;51.426;7.714;2023-02-23T01:29:07;99412.94;;;8.08;100.00
71195;BME280;58908;51.426;7.714;2023-02-23T01:31:36;99410.41;;;8.07;100.00
71195;BME280;58908;51.426;7.714;2023-02-23T01:34:02;99420.22;;;8.03;100.00
71195;BME280;58908;51.426;7.714;2023-02-23T01:36:32;99412.41;;;8.02;100.00
71195;BME280;58908;51.426;7.714;2023-02-23T01:39:01;99411.59;;;8.01;100.00
71195;BME280;58908;51.426;7.714;2023-02-23T01:41:31;99415.97;;;8.01;100.00
71195;BME280;58908;51.426;7.714;2023-02-23T01:43:58;99408.97;;;8.01;100.00
71195;BME280;58908;51.426;7.714;2023-02-23T01:46:25;99407.16;;;8.02;100.00
71195;BME280;58908;51.426;7.714;2023-02-23T01:48:53;99410.66;;;8.02;100.00
71195;BME280;58908;51.426;7.714;2023-02-23T01:51:20;99412.41;;;8.02;100.00
71195;BME280;58908;51.426;7.714;2023-02-23T01:53:50;99409.78;;;8.02;100.00
71195;BME280;58908;51.426;7.714;2023-02-23T01:56:18;99408.09;;;8.01;100.00
71195;BME280;58908;51.426;7.714;2023-02-23T01:58:46;99409.78;;;8.02;100.00
71195;BME280;58908;51.426;7.714;2023-02-23T02:01:15;99400.97;;;8.03;100.00
71195;BME280;58908;51.426;7.714;2023-02-23T02:03:42;99409.72;;;8.03;100.00
71195;BME280;58908;51.426;7.714;2023-02-23T02:06:12;99408.88;;;8.03;100.00
71195;BME280;58908;51.426;7.714;2023-02-23T02:08:39;99405.31;;;8.04;100.00
71195;BME280;58908;51.426;7.714;2023-02-23T02:11:10;99407.09;;;8.03;100.00
71195;BME280;58908;51.426;7.714;2023-02-23T02:13:50;99402.78;;;8.02;100.00
71195;BME280;58908;51.426;7.714;2023-02-23T02:16:26;99403.59;;;8.03;100.00
71195;BME280;58908;51.426;7.714;2023-02-23T02:19:09;99400.06;;;8.04;100.00
71195;BME280;58908;51.426;7.714;2023-02-23T02:24:29;99399.28;;;8.02;100.00
71195;BME280;58908;51.426;7.714;2023-02-23T02:27:06;99396.66;;;8.02;100.00
71195;BME280;58908;51.426;7.714;2023-02-23T02:29:53;99391.41;;;8.02;100.00
71195;BME280;58908;51.426;7.714;2023-02-23T02:35:17;99393.56;;;7.94;100.00
71195;BME280;58908;51.426;7.714;2023-02-23T02:37:55;99391.13;;;7.91;100.00
71195;BME280;58908;51.426;7.714;2023-02-23T02:40:26;99386.72;;;7.91;100.00
71195;BME280;58908;51.426;7.714;2023-02-23T02:43:00;99387.72;;;7.89;100.00
71195;BME280;58908;51.426;7.714;2023-02-23T02:45:33;99385.88;;;7.91;100.00
71195;BME280;58908;51.426;7.714;2023-02-23T02:48:03;99391.06;;;7.92;100.00
71195;BME280;58908;51.426;7.714;2023-02-23T02:50:35;99391.97;;;7.91;100.00
71195;BME280;58908;51.426;7.714;2023-02-23T02:53:07;99382.31;;;7.92;100.00
71195;BME280;58908;51.426;7.714;2023-02-23T02:55:35;99389.19;;;7.94;100.00
71195;BME280;58908;51.426;7.714;2023-02-23T02:58:03;99381.25;;;7.96;100.00
71195;BME280;58908;51.426;7.714;2023-02-23T03:00:34;99382.94;;;7.97;100.00
71195;BME280;58908;51.426;7.714;2023-02-23T03:03:31;99381.31;;;7.94;100.00
71195;BME280;58908;51.426;7.714;2023-02-23T03:06:16;99382.19;;;7.95;100.00
71195;BME280;58908;51.426;7.714;2023-02-23T03:09:04;99383.06;;;7.94;100.00
71195;BME280;58908;51.426;7.714;2023-02-23T03:11:54;99378.84;;;7.91;100.00
71195;BME280;58908;51.426;7.714;2023-02-23T03:14:46;99377.22;;;7.89;100.00
71195;BME280;58908;51.426;7.714;2023-02-23T03:17:32;99378.09;;;7.89;100.00
71195;BME280;58908;51.426;7.714;2023-02-23T03:20:21;99380.72;;;7.89;100.00
71195;BME280;58908;51.426;7.714;2023-02-23T03:23:10;99376.47;;;7.87;100.00
71195;BME280;58908;51.426;7.714;2023-02-23T03:26:01;99374.84;;;7.84;100.00
71195;BME280;58908;51.426;7.714;2023-02-23T03:28:48;99382.56;;;7.87;100.00
71195;BME280;58908;51.426;7.714;2023-02-23T03:31:39;99376.88;;;7.79;100.00
71195;BME280;58908;51.426;7.714;2023-02-23T03:34:29;99387.38;;;7.79;100.00
71195;BME280;58908;51.426;7.714;2023-02-23T03:37:16;99383.88;;;7.79;100.00
71195;BME280;58908;51.426;7.714;2023-02-23T03:40:04;99385.69;;;7.78;100.00
71195;BME280;58908;51.426;7.714;2023-02-23T03:42:51;99383.88;;;7.79;100.00
71195;BME280;58908;51.426;7.714;2023-02-23T03:45:38;99380.31;;;7.80;100.00
71195;BME280;58908;51.426;7.714;2023-02-23T03:48:22;99385.56;;;7.80;100.00
71195;BME280;58908;51.426;7.714;2023-02-23T03:51:07;99380.97;;;7.85;100.00
71195;BME280;58908;51.426;7.714;2023-02-23T03:53:55;99385.09;;;7.89;100.00
71195;BME280;58908;51.426;7.714;2023-02-23T03:56:43;99379.78;;;7.90;100.00
71195;BME280;58908;51.426;7.714;2023-02-23T03:59:31;99378.84;;;7.91;100.00
71195;BME280;58908;51.426;7.714;2023-02-23T04:02:16;99381.38;;;7.93;100.00
71195;BME280;58908;51.426;7.714;2023-02-23T04:05:03;99382.25;;;7.93;100.00
71195;BME280;58908;51.426;7.714;2023-02-23T04:07:48;99380.44;;;7.94;100.00
71195;BME280;58908;51.426;7.714;2023-02-23T04:10:34;99383.25;;;7.91;100.00
71195;BME280;58908;51.426;7.714;2023-02-23T04:13:23;99386.88;;;7.88;100.00
71195;BME280;58908;51.426;7.714;2023-02-23T04:15:53;99379.84;;;7.89;100.00
71195;BME280;58908;51.426;7.714;2023-02-23T04:18:20;99387.72;;;7.89;100.00
71195;BME280;58908;51.426;7.714;2023-02-23T04:20:47;99386.03;;;7.88;100.00
71195;BME280;58908;51.426;7.714;2023-02-23T04:23:14;99386.03;;;7.88;100.00
71195;BME280;58908;51.426;7.714;2023-02-23T04:25:40;99387.81;;;7.87;100.00
71195;BME280;58908;51.426;7.714;2023-02-23T04:28:06;99394.84;;;7.87;100.00
71195;BME280;58908;51.426;7.714;2023-02-23T04:30:32;99392.13;;;7.88;100.00
71195;BME280;58908;51.426;7.714;2023-02-23T04:33:00;99399.94;;;7.90;100.00
71195;BME280;58908;51.426;7.714;2023-02-23T04:35:26;99394.63;;;7.91;100.00
71195;BME280;58908;51.426;7.714;2023-02-23T04:37:55;99395.44;;;7.92;100.00
71195;BME280;58908;51.426;7.714;2023-02-23T04:40:21;99396.38;;;7.91;100.00
71195;BME280;58908;51.426;7.714;2023-02-23T04:42:47;99392.06;;;7.90;100.00
71195;BME280;58908;51.426;7.714;2023-02-23T04:45:14;99393.84;;;7.89;100.00
71195;BME280;58908;51.426;7.714;2023-02-23T04:47:41;99393.06;;;7.87;100.00
71195;BME280;58908;51.426;7.714;2023-02-23T04:50:09;99397.47;;;7.87;100.00
71195;BME280;58908;51.426;7.714;2023-02-23T04:52:36;99396.59;;;7.86;100.00
71195;BME280;58908;51.426;7.714;2023-02-23T04:55:03;99403.66;;;7.86;100.00
71195;BME280;58908;51.426;7.714;2023-02-23T04:57:29;99405.34;;;7.87;100.00
71195;BME280;58908;51.426;7.714;2023-02-23T04:59:55;99402.03;;;7.83;100.00
71195;BME280;58908;51.426;7.714;2023-02-23T05:02:21;99397.88;;;7.79;100.00
71195;BME280;58908;51.426;7.714;2023-02-23T05:04:48;99399.81;;;7.76;100.00
71195;BME280;58908;51.426;7.714;2023-02-23T05:07:15;99401.50;;;7.77;100.00
71195;BME280;58908;51.426;7.714;2023-02-23T05:09:42;99406.69;;;7.78;100.00
71195;BME280;58908;51.426;7.714;2023-02-23T05:12:08;99404.88;;;7.79;100.00
71195;BME280;58908;51.426;7.714;2023-02-23T05:14:34;99398.81;;;7.78;100.00
71195;BME280;58908;51.426;7.714;2023-02-23T05:17:01;99408.44;;;7.78;100.00
71195;BME280;58908;51.426;7.714;2023-02-23T05:19:27;99406.59;;;7.80;100.00
71195;BME280;58908;51.426;7.714;2023-02-23T05:21:53;99401.44;;;7.78;100.00
71195;BME280;58908;51.426;7.714;2023-02-23T05:24:21;99405.81;;;7.78;100.00
71195;BME280;58908;51.426;7.714;2023-02-23T05:26:47;99403.13;;;7.79;100.00
71195;BME280;58908;51.426;7.714;2023-02-23T05:29:13;99411.00;;;7.79;100.00
71195;BME280;58908;51.426;7.714;2023-02-23T05:31:40;99405.75;;;7.79;100.00
71195;BME280;58908;51.426;7.714;2023-02-23T05:34:07;99411.75;;;7.81;100.00
71195;BME280;58908;51.426;7.714;2023-02-23T05:36:34;99410.91;;;7.81;100.00
71195;BME280;58908;51.426;7.714;2023-02-23T05:39:00;99408.28;;;7.81;100.00
71195;BME280;58908;51.426;7.714;2023-02-23T05:41:28;99410.91;;;7.81;100.00
71195;BME280;58908;51.426;7.714;2023-02-23T05:43:54;99408.28;;;7.81;100.00
71195;BME280;58908;51.426;7.714;2023-02-23T05:46:21;99410.91;;;7.81;100.00
71195;BME280;58908;51.426;7.714;2023-02-23T05:48:48;99409.03;;;7.83;100.00
71195;BME280;58908;51.426;7.714;2023-02-23T05:51:14;99410.84;;;7.82;100.00
71195;BME280;58908;51.426;7.714;2023-02-23T05:53:41;99417.72;;;7.85;100.00
71195;BME280;58908;51.426;7.714;2023-02-23T05:56:09;99409.84;;;7.85;100.00
71195;BME280;58908;51.426;7.714;2023-02-23T05:58:38;99419.31;;;7.87;100.00
71195;BME280;58908;51.426;7.714;2023-02-23T06:01:04;99411.44;;;7.87;100.00
71195;BME280;58908;51.426;7.714;2023-02-23T06:03:30;99416.69;;;7.87;100.00
71195;BME280;58908;51.426;7.714;2023-02-23T06:05:57;99417.53;;;7.88;100.00
71195;BME280;58908;51.426;7.714;2023-02-23T06:08:24;99421.94;;;7.87;100.00
71195;BME280;58908;51.426;7.714;2023-02-23T06:10:50;99412.28;;;7.88;100.00
71195;BME280;58908;51.426;7.714;2023-02-23T06:13:17;99420.94;;;7.90;100.00
71195;BME280;58908;51.426;7.714;2023-02-23T06:15:44;99420.88;;;7.91;100.00
71195;BME280;58908;51.426;7.714;2023-02-23T06:18:11;99426.03;;;7.93;100.00
71195;BME280;58908;51.426;7.714;2023-02-23T06:20:37;99426.94;;;7.92;100.00
71195;BME280;58908;51.426;7.714;2023-02-23T06:23:04;99427.81;;;7.92;100.00
71195;BME280;58908;51.426;7.714;2023-02-23T06:25:31;99433.91;;;7.93;100.00
71195;BME280;58908;51.426;7.714;2023-02-23T06:27:58;99435.59;;;7.94;100.00
71195;BME280;58908;51.426;7.714;2023-02-23T06:30:24;99434.84;;;7.92;100.00
71195;BME280;58908;51.426;7.714;2023-02-23T06:32:51;99430.50;;;7.91;100.00
71195;BME280;58908;51.426;7.714;2023-02-23T06:35:18;99439.31;;;7.90;100.00
71195;BME280;58908;51.426;7.714;2023-02-23T06:37:44;99449.28;;;7.83;100.00
71195;BME280;58908;51.426;7.714;2023-02-23T06:40:10;99442.50;;;7.79;100.00
71195;BME280;58908;51.426;7.714;2023-02-23T06:42:37;99447.06;;;7.76;100.00
71195;BME280;58908;51.426;7.714;2023-02-23T06:45:03;99448.81;;;7.75;100.00
71195;BME280;58908;51.426;7.714;2023-02-23T06:47:30;99447.88;;;7.76;100.00
71195;BME280;58908;51.426;7.714;2023-02-23T06:49:57;99448.91;;;7.74;100.00
71195;BME280;58908;51.426;7.714;2023-02-23T06:52:26;99460.25;;;7.74;100.00
71195;BME280;58908;51.426;7.714;2023-02-23T06:54:52;99469.81;;;7.75;100.00
71195;BME280;58908;51.426;7.714;2023-02-23T06:57:18;99469.06;;;7.73;100.00
71195;BME280;58908;51.426;7.714;2023-02-23T06:59:45;99469.13;;;7.72;100.00
71195;BME280;58908;51.426;7.714;2023-02-23T07:02:15;99472.59;;;7.72;100.00
71195;BME280;58908;51.426;7.714;2023-02-23T07:04:41;99474.38;;;7.72;100.00
71195;BME280;58908;51.426;7.714;2023-02-23T07:07:09;99478.72;;;7.73;100.00
71195;BME280;58908;51.426;7.714;2023-02-23T07:09:37;99475.06;;;7.75;100.00
71195;BME280;58908;51.426;7.714;2023-02-23T07:12:04;99481.19;;;7.76;100.00
71195;BME280;58908;51.426;7.714;2023-02-23T07:14:30;99482.03;;;7.76;100.00
71195;BME280;58908;51.426;7.714;2023-02-23T07:16:57;99479.41;;;7.76;100.00
71195;BME280;58908;51.426;7.714;2023-02-23T07:19:23;99486.34;;;7.77;100.00
71195;BME280;58908;51.426;7.714;2023-02-23T07:21:49;99487.44;;;7.73;100.00
71195;BME280;58908;51.426;7.714;2023-02-23T07:24:17;99484.88;;;7.72;100.00
71195;BME280;58908;51.426;7.714;2023-02-23T07:26:43;99485.75;;;7.72;100.00
71195;BME280;58908;51.426;7.714;2023-02-23T07:29:11;99489.06;;;7.76;100.00
71195;BME280;58908;51.426;7.714;2023-02-23T07:31:37;99489.91;;;7.76;100.00
71195;BME280;58908;51.426;7.714;2023-02-23T07:34:04;99489.75;;;7.79;100.00
71195;BME280;58908;51.426;7.714;2023-02-23T07:36:30;99492.47;;;7.78;100.00
71195;BME280;58908;51.426;7.714;2023-02-23T07:38:57;99497.53;;;7.81;100.00
71195;BME280;58908;51.426;7.714;2023-02-23T07:41:24;99501.75;;;7.85;100.00
71195;BME280;58908;51.426;7.714;2023-02-23T07:43:51;99497.25;;;7.87;100.00
71195;BME280;58908;51.426;7.714;2023-02-23T07:46:17;99502.56;;;7.85;100.00
71195;BME280;58908;51.426;7.714;2023-02-23T07:48:43;99505.19;;;7.85;100.00
71195;BME280;58908;51.426;7.714;2023-02-23T07:51:10;99496.56;;;7.83;100.00
71195;BME280;58908;51.426;7.714;2023-02-23T07:53:36;99507.59;;;7.90;100.00
71195;BME280;58908;51.426;7.714;2023-02-23T07:56:03;99501.56;;;7.88;100.00
71195;BME280;58908;51.426;7.714;2023-02-23T07:58:31;99505.84;;;7.90;100.00
71195;BME280;58908;51.426;7.714;2023-02-23T08:00:57;99508.22;;;7.95;100.00
71195;BME280;58908;51.426;7.714;2023-02-23T08:03:23;99517.72;;;7.97;100.00
71195;BME280;58908;51.426;7.714;2023-02-23T08:05:50;99518.72;;;7.95;100.00
71195;BME280;58908;51.426;7.714;2023-02-23T08:08:16;99517.94;;;7.93;100.00
71195;BME280;58908;51.426;7.714;2023-02-23T08:10:42;99513.06;;;7.85;100.00
71195;BME280;58908;51.426;7.714;2023-02-23T08:13:09;99520.94;;;7.85;100.00
71195;BME280;58908;51.426;7.714;2023-02-23T08:15:36;99516.69;;;7.83;100.00
71195;BME280;58908;51.426;7.714;2023-02-23T08:18:04;99525.50;;;7.82;100.00
71195;BME280;58908;51.426;7.714;2023-02-23T08:20:30;99531.44;;;7.85;100.00
71195;BME280;58908;51.426;7.714;2023-02-23T08:22:56;99533.25;;;7.85;100.00
71195;BME280;58908;51.426;7.714;2023-02-23T08:25:23;99527.13;;;7.84;100.00
71195;BME280;58908;51.426;7.714;2023-02-23T08:27:51;99530.53;;;7.86;100.00
71195;BME280;58908;51.426;7.714;2023-02-23T08:30:19;99533.31;;;7.83;100.00
71195;BME280;58908;51.426;7.714;2023-02-23T08:32:47;99531.69;;;7.81;100.00
71195;BME280;58908;51.426;7.714;2023-02-23T08:35:13;99534.25;;;7.82;100.00
71195;BME280;58908;51.426;7.714;2023-02-23T08:37:40;99540.56;;;7.78;100.00
71195;BME280;58908;51.426;7.714;2023-02-23T08:40:07;99534.19;;;7.84;100.00
71195;BME280;58908;51.426;7.714;2023-02-23T08:42:33;99539.72;;;7.78;100.00
71195;BME280;58908;51.426;7.714;2023-02-23T08:45:02;99536.94;;;7.81;100.00
71195;BME280;58908;51.426;7.714;2023-02-23T08:47:28;99547.22;;;7.85;100.00
71195;BME280;58908;51.426;7.714;2023-02-23T08:50:04;99550.97;;;7.80;100.00
71195;BME280;58908;51.426;7.714;2023-02-23T08:52:31;99545.50;;;7.84;100.00
71195;BME280;58908;51.426;7.714;2023-02-23T08:54:58;99547.84;;;7.90;100.00
71195;BME280;58908;51.426;7.714;2023-02-23T08:57:24;99549.78;;;7.87;100.00
71195;BME280;58908;51.426;7.714;2023-02-23T08:59:53;99553.88;;;7.92;100.00
71195;BME280;58908;51.426;7.714;2023-02-23T09:02:19;99559.94;;;7.93;100.00
71195;BME280;58908;51.426;7.714;2023-02-23T09:04:47;99552.06;;;7.93;100.00
71195;BME280;58908;51.426;7.714;2023-02-23T09:07:16;99558.91;;;7.97;100.00
71195;BME280;58908;51.426;7.714;2023-02-23T09:09:43;99558.72;;;8.00;100.00
71195;BME280;58908;51.426;7.714;2023-02-23T09:12:09;99563.22;;;7.98;100.00
71195;BME280;58908;51.426;7.714;2023-02-23T09:14:35;99566.22;;;7.90;100.00
71195;BME280;58908;51.426;7.714;2023-02-23T09:17:02;99564.06;;;7.98;100.00
71195;BME280;58908;51.426;7.714;2023-02-23T09:19:28;99564.75;;;8.02;100.00
71195;BME280;58908;51.426;7.714;2023-02-23T09:21:55;99569.00;;;8.04;100.00
71195;BME280;58908;51.426;7.714;2023-02-23T09:24:22;99567.69;;;8.13;100.00
71195;BME280;58908;51.426;7.714;2023-02-23T09:26:48;99569.00;;;8.04;100.00
71195;BME280;58908;51.426;7.714;2023-02-23T09:29:17;99567.47;;;8.00;100.00
71195;BME280;58908;51.426;7.714;2023-02-23T09:31:43;99574.75;;;8.12;100.00
71195;BME280;58908;51.426;7.714;2023-02-23T09:34:09;99577.16;;;8.17;100.00
71195;BME280;58908;51.426;7.714;2023-02-23T09:36:36;99569.56;;;8.11;100.00
71195;BME280;58908;51.426;7.714;2023-02-23T09:39:03;99573.94;;;8.10;100.00
71195;BME280;58908;51.426;7.714;2023-02-23T09:44:17;99582.91;;;8.06;100.00
71195;BME280;58908;51.426;7.714;2023-02-23T09:46:47;99580.22;;;8.08;100.00
71195;BME280;58908;51.426;7.714;2023-02-23T09:49:21;99583.63;;;8.10;100.00
71195;BME280;58908;51.426;7.714;2023-02-23T09:51:50;99586.94;;;8.13;100.00
71195;BME280;58908;51.426;7.714;2023-02-23T09:54:21;99583.63;;;8.10;100.00
71195;BME280;58908;51.426;7.714;2023-02-23T09:56:49;99582.84;;;8.08;100.00
71195;BME280;58908;51.426;7.714;2023-02-23T09:59:19;99592.28;;;8.12;100.00
71195;BME280;58908;51.426;7.714;2023-02-23T10:04:31;99586.50;;;8.39;100.00
71195;BME280;58908;51.426;7.714;2023-02-23T10:07:02;99587.50;;;8.37;100.00
71195;BME280;58908;51.426;7.714;2023-02-23T10:09:37;99589.13;;;8.39;100.00
71195;BME280;58908;51.426;7.714;2023-02-23T10:12:08;99595.03;;;8.44;100.00
71195;BME280;58908;51.426;7.714;2023-02-23T10:14:44;99592.13;;;8.49;100.00
71195;BME280;58908;51.426;7.714;2023-02-23T10:17:16;99589.13;;;8.56;100.00
71195;BME280;58908;51.426;7.714;2023-02-23T10:19:47;99588.31;;;8.39;100.00
71195;BME280;58908;51.426;7.714;2023-02-23T10:22:15;99594.72;;;8.33;100.00
71195;BME280;58908;51.426;7.714;2023-02-23T10:24:47;99593.63;;;8.37;100.00
71195;BME280;58908;51.426;7.714;2023-02-23T10:27:16;99595.72;;;8.31;100.00
71195;BME280;58908;51.426;7.714;2023-02-23T10:29:47;99603.69;;;8.46;100.00
71195;BME280;58908;51.426;7.714;2023-02-23T10:32:16;99608.41;;;8.40;100.00
71195;BME280;58908;51.426;7.714;2023-02-23T10:34:44;99608.59;;;8.18;100.00
71195;BME280;58908;51.426;7.714;2023-02-23T10:37:12;99607.63;;;8.21;100.00
71195;BME280;58908;51.426;7.714;2023-02-23T10:39:41;99611.22;;;8.18;100.00
71195;BME280;58908;51.426;7.714;2023-02-23T10:42:15;99609.38;;;8.20;100.00
71195;BME280;58908;51.426;7.714;2023-02-23T10:44:42;99616.09;;;8.26;100.00
71195;BME280;58908;51.426;7.714;2023-02-23T10:47:12;99610.72;;;8.29;100.00
71195;BME280;58908;51.426;7.714;2023-02-23T10:49:40;99610.00;;;8.25;100.00
71195;BME280;58908;51.426;7.714;2023-02-23T10:52:09;99614.00;;;8.15;100.00
71195;BME280;58908;51.426;7.714;2023-02-23T10:54:39;99612.19;;;7.99;100.00
71195;BME280;58908;51.426;7.714;2023-02-23T10:57:08;99614.50;;;8.05;100.00
71195;BME280;58908;51.426;7.714;2023-02-23T10:59:38;99609.41;;;8.02;100.00
71195;BME280;58908;51.426;7.714;2023-02-23T11:02:20;99606.88;;;8.00;100.00
71195;BME280;58908;51.426;7.714;2023-02-23T11:04:51;99607.72;;;8.01;100.00
71195;BME280;58908;51.426;7.714;2023-02-23T11:07:20;99613.50;;;8.07;100.00
71195;BME280;58908;51.426;7.714;2023-02-23T11:09:47;99609.94;;;8.08;100.00
71195;BME280;58908;51.426;7.714;2023-02-23T11:12:15;99608.03;;;8.12;100.00
71195;BME280;58908;51.426;7.714;2023-02-23T11:14:45;99617.38;;;8.17;100.00
71195;BME280;58908;51.426;7.714;2023-02-23T11:17:23;99609.03;;;8.28;100.00
71195;BME280;58908;51.426;7.714;2023-02-23T11:19:49;99607.59;;;8.38;100.00
71195;BME280;58908;51.426;7.714;2023-02-23T11:22:17;99609.22;;;8.40;100.00
71195;BME280;58908;51.426;7.714;2023-02-23T11:24:47;99610.53;;;8.49;100.00
71195;BME280;58908;51.426;7.714;2023-02-23T11:27:17;99605.34;;;8.64;100.00
71195;BME280;58908;51.426;7.714;2023-02-23T11:29:45;99607.75;;;8.69;100.00
71195;BME280;58908;51.426;7.714;2023-02-23T11:32:14;99610.91;;;8.75;100.00
71195;BME280;58908;51.426;7.714;2023-02-23T11:34:42;99601.88;;;8.64;100.00
71195;BME280;58908;51.426;7.714;2023-02-23T11:37:17;99610.59;;;8.64;100.00
71195;BME280;58908;51.426;7.714;2023-02-23T11:39:49;99609.06;;;8.43;100.00
71195;BME280;58908;51.426;7.714;2023-02-23T11:42:16;99601.75;;;8.33;100.00
71195;BME280;58908;51.426;7.714;2023-02-23T11:44:44;99600.34;;;8.26;100.00
71195;BME280;58908;51.426;7.714;2023-02-23T11:47:15;99604.06;;;8.22;100.00
71195;BME280;58908;51.426;7.714;2023-02-23T11:49:44;99603.50;;;8.32;100.00
71195;BME280;58908;51.426;7.714;2023-02-23T11:52:11;99599.97;;;8.33;100.00
71195;BME280;58908;51.426;7.714;2023-02-23T11:54:39;99601.38;;;8.23;100.00
71195;BME280;58908;51.426;7.714;2023-02-23T11:57:18;99598.72;;;8.23;100.00
71195;BME280;58908;51.426;7.714;2023-02-23T11:59:45;99596.88;;;8.25;100.00
71195;BME280;58908;51.426;7.714;2023-02-23T12:02:17;99596.94;;;8.24;100.00
71195;BME280;58908;51.426;7.714;2023-02-23T12:04:48;99593.59;;;8.20;100.00
71195;BME280;58908;51.426;7.714;2023-02-23T12:07:22;99602.84;;;8.10;100.00
71195;BME280;58908;51.426;7.714;2023-02-23T12:09:52;99605.09;;;8.01;100.00
71195;BME280;58908;51.426;7.714;2023-02-23T12:12:20;99598.78;;;7.86;100.00
71195;BME280;58908;51.426;7.714;2023-02-23T12:14:50;99607.69;;;7.84;100.00
71195;BME280;58908;51.426;7.714;2023-02-23T12:17:20;99599.50;;;7.73;100.00
71195;BME280;58908;51.426;7.714;2023-02-23T12:19:50;99599.34;;;7.76;100.00
71195;BME280;58908;51.426;7.714;2023-02-23T12:22:19;99597.91;;;7.69;100.00
71195;BME280;58908;51.426;7.714;2023-02-23T12:24:47;99599.59;;;7.70;100.00
71195;BME280;58908;51.426;7.714;2023-02-23T12:27:17;99606.56;;;7.71;100.00
71195;BME280;58908;51.426;7.714;2023-02-23T12:32:38;99598.34;;;7.60;100.00
71195;BME280;58908;51.426;7.714;2023-02-23T12:35:09;99593.25;;;7.57;100.00
71195;BME280;58908;51.426;7.714;2023-02-23T12:37:38;99597.09;;;7.50;100.00
71195;BME280;58908;51.426;7.714;2023-02-23T12:40:10;99597.22;;;7.47;100.00
71195;BME280;58908;51.426;7.714;2023-02-23T12:42:41;99601.00;;;7.41;100.00
71195;BME280;58908;51.426;7.714;2023-02-23T12:45:12;99605.41;;;7.41;100.00
71195;BME280;58908;51.426;7.714;2023-02-23T12:47:41;99603.50;;;7.44;100.00
71195;BME280;58908;51.426;7.714;2023-02-23T12:50:12;99607.09;;;7.42;100.00
71195;BME280;58908;51.426;7.714;2023-02-23T12:52:46;99604.69;;;7.37;100.00
71195;BME280;58908;51.426;7.714;2023-02-23T12:55:14;99606.66;;;7.32;100.00
71195;BME280;58908;51.426;7.714;2023-02-23T12:57:42;99606.59;;;7.34;100.00
71195;BME280;58908;51.426;7.714;2023-02-23T13:00:28;99611.84;;;7.34;100.00
71195;BME280;58908;51.426;7.714;2023-02-23T13:03:03;99606.59;;;7.34;100.00
71195;BME280;58908;51.426;7.714;2023-02-23T13:05:36;99608.97;;;7.40;100.00
71195;BME280;58908;51.426;7.714;2023-02-23T13:08:07;99611.22;;;7.29;100.00
71195;BME280;58908;51.426;7.714;2023-02-23T13:10:40;99603.97;;;7.34;100.00
71195;BME280;58908;51.426;7.714;2023-02-23T13:13:11;99614.47;;;7.34;100.00
71195;BME280;58908;51.426;7.714;2023-02-23T13:15:44;99622.84;;;7.23;100.00
71195;BME280;58908;51.426;7.714;2023-02-23T13:18:13;99621.84;;;7.26;100.00
71195;BME280;58908;51.426;7.714;2023-02-23T13:20:46;99618.94;;;7.32;100.00
71195;BME280;58908;51.426;7.714;2023-02-23T13:23:19;99615.41;;;7.33;100.00
71195;BME280;58908;51.426;7.714;2023-02-23T13:25:48;99616.19;;;7.35;100.00
71195;BME280;58908;51.426;7.714;2023-02-23T13:28:19;99615.25;;;7.36;100.00